• Join FlightAware (Why Join?)
  • Login
  • US Flag 
03:20PM EST


 

Airport Tracker/Info


-or-


 

Live Flight TrackerFlight Track Log ✈ EJA396 ✈ 28-Jul-2013 ✈ KBTM - KBFI

Flight Track Log - Related Links

Times and Time Zones

All times are in EDT time to prevent confusion due to time zone crossing. See the EJA396 flight status page for this flight to view local times or setup timezone preferences in your user account.

Time Position Orientation Groundspeed Altitude Reporting Facility
EDT Latitude Longitude Course Direction KTS MPH feet Rate Location/Type
03:56PM 45.9972 -112.5575 306° West 238 274 9,300  Level Salt Lake Center
03:57PM 46.0547 -112.6667 307° West 299 344 12,000 2,400 Climbing Salt Lake Center
03:58PM 46.2451 -113.0784 325° Northwest  Level FlightAware Approximate
03:58PM 46.1022 -112.7636 305° West 302 348 14,300  Level Salt Lake Center
03:59PM 46.2961 -113.2046 311° West  Level FlightAware Approximate
03:59PM 46.1519 -112.8636 306° West 305 351 16,600  Level Salt Lake Center
04:00PM 46.3545 -113.3245 310° West  Level FlightAware Approximate
04:00PM 46.1911 -112.9794 296° West 319 367 18,900  Level Salt Lake Center
04:01PM 46.4194 -113.4388 306° West  Level FlightAware Approximate
04:01PM 46.2506 -113.0972 306° West 363 418 22,000  Level Salt Lake Center
04:02PM 46.4794 -113.5587 306° West  Level FlightAware Approximate
04:03PM 46.3094 -113.2044 309° West 343 395 26,000  Level Salt Lake Center
04:04PM 46.3722 -113.3125 310° West 318 366 29,900 2,940 Climbing Salt Lake Center
04:05PM 46.4233 -113.4156 306° West 317 365 32,100 1,920 Climbing Salt Lake Center
04:06PM 46.4744 -113.5233 305° West 324 373 33,900 900 Climbing Salt Lake Center
04:07PM 46.5300 -113.6414 304° West 356 410 34,000  Climbing Salt Lake Center
04:08PM 46.5797 -113.8150 293° West 388 447 34,000  Level Salt Lake Center
04:09PM 46.6214 -113.9653 292° West 400 460 34,000  Level Salt Lake Center
04:10PM 46.6642 -114.1175 292° West 406 467 34,000  Level Salt Lake Center
04:11PM 46.7067 -114.2731 292° West 412 474 34,000  Level Salt Lake Center
04:12PM 46.7489 -114.4267 292° West 409 471 34,000  Level Salt Lake Center
04:13PM 46.7903 -114.5792 292° West 406 467 34,000  Level Salt Lake Center
04:14PM 46.8400 -114.7614 292° West 403 464 34,000  Level Salt Lake Center
04:15PM 46.8811 -114.9147 291° West 405 466 34,000  Level Salt Lake Center
04:16PM 46.9208 -115.0681 291° West 404 465 34,000  Level Salt Lake Center
04:17PM 46.9619 -115.2208 292° West 405 466 34,000  Level Salt Lake Center
04:18PM 47.0025 -115.3756 291° West 407 468 34,000  Level Salt Lake Center
04:19PM 47.0436 -115.5292 291° West 405 466 34,000  Level Salt Lake Center
04:20PM 47.0836 -115.6836 291° West 407 468 34,000  Level Salt Lake Center
04:21PM 47.1414 -115.9111 291° West 406 467 34,000  Level Seattle Center
04:22PM 47.1808 -116.0681 290° West 410 472 34,000  Level Seattle Center
04:23PM 47.2211 -116.2253 291° West 410 472 34,000  Level Seattle Center
04:24PM 47.2517 -116.3850 286° West 409 471 34,000  Level Seattle Center
04:25PM 47.2764 -116.5494 283° West 410 472 34,000  Level Seattle Center
04:27PM 47.3003 -116.7139 282° West 410 472 34,000  Level Seattle Center
04:28PM 47.3239 -116.8789 282° West 409 471 34,000  Level Seattle Center
04:29PM 47.3472 -117.0450 282° West 409 471 34,000  Level Seattle Center
04:30PM 47.3706 -117.2117 282° West 410 472 34,000  Level Seattle Center
04:31PM 47.3944 -117.3786 282° West 411 473 34,000  Level Seattle Center
04:32PM 47.4167 -117.5433 281° West 409 471 34,000  Level Seattle Center
04:33PM 47.4436 -117.7417 281° West 409 471 34,000  Level Seattle Center
04:34PM 47.4653 -117.9089 281° West 413 475 34,000  Level Seattle Center
04:35PM 47.4869 -118.0736 281° West 411 473 34,000  Level Seattle Center
04:36PM 47.5097 -118.2414 281° West 415 478 34,000  Level Seattle Center
04:37PM 47.5308 -118.4108 281° West 417 480 34,000  Level Seattle Center
04:38PM 47.5525 -118.5789 281° West 416 479 34,000  Level Seattle Center
04:39PM 47.5742 -118.7494 281° West 422 486 34,000  Level Seattle Center
04:40PM 47.5939 -118.9194 280° West 418 481 34,000  Level Seattle Center
04:41PM 47.6164 -119.0922 281° West 426 490 34,000  Level Seattle Center
04:42PM 47.6364 -119.2653 280° West 429 494 34,000  Level Seattle Center
04:43PM 47.6619 -119.4761 280° West 433 498 34,000 -60 Level Seattle Center
04:44PM 47.6828 -119.6519 280° West 434 499 33,900 -780 Descending Seattle Center
04:45PM 47.7033 -119.8250 280° West 428 493 32,500 -1,440 Descending Seattle Center
04:46PM 47.7239 -119.9983 280° West 429 494 31,000 -1,500 Descending Seattle Center
04:47PM 47.7419 -120.1736 279° West 432 497 29,500 -1,560 Descending Seattle Center
04:48PM 47.7625 -120.3489 280° West 435 501 27,900 -1,860 Descending Seattle Center
04:49PM 47.7639 -120.5200 271° West 420 483 25,700 -2,220 Descending Seattle Center
04:50PM 47.7650 -120.6839 271° West 404 465 23,500 -2,160 Descending Seattle Center
04:51PM 47.7658 -120.8489 270° West 388 447 21,300 -2,400 Descending Seattle Center
04:52PM 47.7703 -121.0342 272° West 380 437 18,700 -2,220 Descending Seattle Center
04:53PM 47.7683 -121.1825 269° West 365 420 16,900 -1,920 Descending Seattle Center
04:54PM 47.7689 -121.3317 270° West 357 411 14,900 -2,040 Descending Seattle Center
04:55PM 47.7689 -121.4772 270° West 355 409 12,900 -1,920 Descending Seattle Center
04:56PM 47.7694 -121.6161 270° West 335 386 11,000 -1,380 Descending Seattle Center
04:57PM 47.7686 -121.7256 269° West 281 323 10,300 -1,200 Descending Seattle Center
04:58PM 47.7672 -121.8322 269° West 273 314 8,800 -1,800 Descending Seattle Center
04:59PM 47.7675 -121.9642 270° West 271 312 6,700 -1,860 Descending Seattle Center
05:00PM 47.7664 -122.0639 269° West 237 273 4,900 -1,680 Descending Seattle Center
05:01PM 47.7675 -122.1392 271° West 213 245 3,700 -1,140 Descending Seattle Center
05:02PM 47.7706 -122.2033 274° West 172 198 3,000 -360 Descending Seattle Center
05:03PM 47.7728 -122.2914 272° West 186 214 3,000  Level Seattle Center
05:04PM 47.7864 -122.3628 286° West 178 205 3,000  Level Seattle Center
05:05PM 47.8033 -122.4392 288° West 182 209 3,000 -300 Level Seattle Center
05:06PM 47.8172 -122.5042 288° West 179 206 2,500 -600 Descending Seattle Center
05:06PM 47.8211 -122.5314 282° West 178 205 2,200 -300 Descending Seattle Center
05:07PM 47.7942 -122.5267 173° South 193 222 2,200  Level Seattle Center
05:08PM 47.7464 -122.4872 151° Southeast 179 206 2,200  Level Seattle Center
05:09PM 47.7042 -122.4511 150° Southeast 169 194 2,200  Level Seattle Center
05:10PM 47.6617 -122.4153 150° Southeast 177 204 2,200 -120 Level Seattle Center
05:11PM 47.6228 -122.3842 152° Southeast 174 200 2,000 -540 Descending Seattle Center
05:12PM 47.5883 -122.3539 149° Southeast 137 158 1,200 -780 Descending Seattle Center
05:13PM 47.5594 -122.3272 148° Southeast 117 135 500 -480 Descending Seattle Center
05:15PM 47.5214 -122.2936 149° Southeast 119 137 100 4,200 Descending Seattle Center
05:16PM 47.5289 -122.2939 359° North 80 92 11,000 10,680 Climbing Seattle Center